This is the latest recevied weather packets stored in our database for station/object K6MBY. If no packets are shown the sender has not sent any weather packets the latest 10 day(s).
| Time | Temp. | Humidity | Pressure | Rain* | Wind** | Luminosity | Snow |
|---|---|---|---|---|---|---|---|
| 1777677626 | 10.56° C | 93% | 1019.3 hPa | 0 mm | - | 586 W/m² | - |
| 1777677324 | 10.56° C | 93% | 1019.6 hPa | 0 mm | - | 508 W/m² | - |
| 1777677022 | 10.56° C | 93% | 1019.6 hPa | 0 mm | - | 550 W/m² | - |
| 1777676721 | 10.56° C | 93% | 1019.7 hPa | 0 mm | - | 474 W/m² | - |
| 1777676417 | 10.56° C | 93% | 1019.8 hPa | 0 mm | - | 552 W/m² | - |
| 1777676110 | 10.56° C | 92% | 1019.9 hPa | 0 mm | - | 625 W/m² | - |
| 1777675805 | 10.56° C | 92% | 1019.9 hPa | 0 mm | - | 461 W/m² | - |
| 1777675503 | 11.11° C | 91% | 1019.8 hPa | 0 mm | - | 503 W/m² | - |
| 1777675200 | 11.67° C | 89% | 1019.8 hPa | 0 mm | - | 663 W/m² | - |
| 1777674896 | 12.22° C | 88% | 1020 hPa | 0 mm | - | 679 W/m² | - |
| 1777674592 | 11.67° C | 90% | 1019.9 hPa | 0 mm | - | 743 W/m² | - |
| 1777674290 | 11.67° C | 90% | 1020.3 hPa | 0 mm | - | 269 W/m² | - |
| 1777673986 | 11.11° C | 92% | 1020 hPa | 0 mm | - | 797 W/m² | - |
| 1777673682 | 11.11° C | 91% | 1020.3 hPa | 0 mm | - | 323 W/m² | - |
| 1777673381 | 11.11° C | 91% | 1020.3 hPa | 0 mm | - | 209 W/m² | - |
| 1777673078 | 12.22° C | 88% | 1020.3 hPa | 0 mm | - | 232 W/m² | - |
| 1777672773 | 12.22° C | 88% | 1020.2 hPa | 0 mm | - | 790 W/m² | - |
| 1777672471 | 11.67° C | 89% | 1020.4 hPa | 0 mm | - | 731 W/m² | - |
| 1777672165 | 12.22° C | 87% | 1020.4 hPa | 0 mm | - | 697 W/m² | - |
| 1777671861 | 12.22° C | 86% | 1020.2 hPa | 0 mm | - | 677 W/m² | - |
| 1777671557 | 12.78° C | 86% | 1020.3 hPa | 0 mm | - | 694 W/m² | - |
| 1777671254 | 13.33° C | 84% | 1020.4 hPa | 0 mm | - | 699 W/m² | - |
| 1777670950 | 12.78° C | 86% | 1020.4 hPa | 0 mm | - | 692 W/m² | - |
| 1777670647 | 12.22° C | 86% | 1020.4 hPa | 0 mm | - | 776 W/m² | - |
| 1777670343 | 12.78° C | 86% | 1020.3 hPa | 0 mm | - | 764 W/m² | - |
* Rain latest hour (hover to see other rain measurements)
** Current wind speed in m/s (hover to see current wind gust speed)